createdAt,value
2023-04-30T00:00:59.059Z,24.52
2023-04-30T00:01:59.183Z,24.54
2023-04-30T00:02:59.251Z,24.54
2023-04-30T00:03:59.351Z,24.52
2023-04-30T00:04:59.280Z,24.55
2023-04-30T00:05:59.384Z,24.54
2023-04-30T00:06:59.394Z,24.55
2023-04-30T00:07:59.465Z,24.54
2023-04-30T00:08:59.529Z,24.55
2023-04-30T00:09:59.575Z,24.52
2023-04-30T00:10:59.788Z,24.52
2023-04-30T00:11:59.671Z,24.52
2023-04-30T00:12:59.722Z,24.54
2023-04-30T00:13:59.813Z,24.51
2023-04-30T00:14:59.882Z,24.52
2023-04-30T00:15:59.970Z,24.51
2023-04-30T00:16:59.951Z,24.52
2023-04-30T00:18:00.085Z,24.54
2023-04-30T00:19:00.101Z,24.52
2023-04-30T00:20:00.170Z,24.52
2023-04-30T00:21:00.220Z,24.51
2023-04-30T00:22:00.252Z,24.51
2023-04-30T00:23:00.341Z,24.52
2023-04-30T00:24:00.395Z,24.52
2023-04-30T00:25:00.504Z,24.51
2023-04-30T00:26:00.506Z,24.51
2023-04-30T00:27:00.581Z,24.52
2023-04-30T00:28:00.669Z,24.52
2023-04-30T00:29:00.687Z,24.50
2023-04-30T00:30:00.765Z,24.52
2023-04-30T00:31:00.807Z,24.51
2023-04-30T00:32:00.893Z,24.51
2023-04-30T00:33:00.984Z,24.51
2023-04-30T00:34:00.999Z,24.51
2023-04-30T00:35:01.037Z,24.54
2023-04-30T00:36:01.123Z,24.51
2023-04-30T00:37:01.149Z,24.52
2023-04-30T00:38:01.222Z,24.52
2023-04-30T00:39:01.284Z,24.50
2023-04-30T00:40:01.345Z,24.52
2023-04-30T00:41:01.423Z,24.52
2023-04-30T00:42:01.442Z,24.52
2023-04-30T00:43:01.513Z,24.51
2023-04-30T00:44:01.560Z,24.51
2023-04-30T00:45:01.616Z,24.50
2023-04-30T00:46:01.908Z,24.48
2023-04-30T00:47:01.746Z,24.50
2023-04-30T00:48:01.878Z,24.51
2023-04-30T00:49:01.858Z,24.50
2023-04-30T00:50:01.912Z,24.48
2023-04-30T00:51:02.373Z,24.50
2023-04-30T00:52:02.071Z,24.51
2023-04-30T00:53:02.077Z,24.51
2023-04-30T00:54:02.190Z,24.48
2023-04-30T00:55:02.240Z,24.48
2023-04-30T00:56:02.313Z,24.51
2023-04-30T00:57:02.363Z,24.50
2023-04-30T00:58:02.408Z,24.50
2023-04-30T00:59:02.509Z,24.48
2023-04-30T01:00:02.488Z,24.52
2023-04-30T01:01:02.620Z,24.50
2023-04-30T01:02:02.847Z,24.51
2023-04-30T01:03:02.861Z,24.48
2023-04-30T01:04:02.814Z,24.50
2023-04-30T01:05:02.913Z,24.50
2023-04-30T01:06:03.359Z,24.50
2023-04-30T01:07:02.977Z,24.50
2023-04-30T01:08:03.004Z,24.50
2023-04-30T01:09:03.063Z,24.51
2023-04-30T01:10:03.126Z,24.48
2023-04-30T01:11:03.172Z,24.50
2023-04-30T01:12:03.186Z,24.50
2023-04-30T01:13:03.346Z,24.48
2023-04-30T01:14:03.334Z,24.48
2023-04-30T01:15:03.409Z,24.50
2023-04-30T01:16:03.908Z,24.50
2023-04-30T01:17:03.517Z,24.47
2023-04-30T01:18:03.685Z,24.48
2023-04-30T01:19:03.662Z,24.51
2023-04-30T01:20:03.749Z,24.48
2023-04-30T01:21:03.748Z,24.48
2023-04-30T01:22:03.816Z,24.48
2023-04-30T01:23:03.882Z,24.50
2023-04-30T01:24:03.994Z,24.50
2023-04-30T01:25:04.037Z,24.50
2023-04-30T01:26:04.132Z,24.47
2023-04-30T01:27:04.156Z,24.48
2023-04-30T01:28:04.201Z,24.48
2023-04-30T01:29:04.239Z,24.47
2023-04-30T01:30:04.325Z,24.48
2023-04-30T01:31:04.894Z,24.48
2023-04-30T01:32:04.408Z,24.45
2023-04-30T01:33:04.560Z,24.48
2023-04-30T01:34:04.562Z,24.47
2023-04-30T01:35:04.579Z,24.48
2023-04-30T01:36:04.837Z,24.47
2023-04-30T01:37:04.741Z,24.48
2023-04-30T01:38:04.785Z,24.47
2023-04-30T01:39:04.853Z,24.48
2023-04-30T01:40:04.967Z,24.50
2023-04-30T01:41:04.974Z,24.48
2023-04-30T01:42:05.069Z,24.47
2023-04-30T01:43:05.118Z,24.47
2023-04-30T01:44:05.170Z,24.45
2023-04-30T01:45:05.248Z,24.48
2023-04-30T01:46:05.315Z,24.47
2023-04-30T01:47:05.409Z,24.47
2023-04-30T01:48:05.533Z,24.50
2023-04-30T01:49:05.490Z,24.45
2023-04-30T01:50:05.572Z,24.45
2023-04-30T01:51:05.609Z,24.50
2023-04-30T01:52:05.668Z,24.47
2023-04-30T01:53:05.718Z,24.45
2023-04-30T01:54:05.803Z,24.45
2023-04-30T01:55:05.820Z,24.47
2023-04-30T01:56:05.875Z,24.44
2023-04-30T01:57:05.944Z,24.47
2023-04-30T01:58:06.019Z,24.45
2023-04-30T01:59:06.056Z,24.45
2023-04-30T02:00:06.131Z,24.44
2023-04-30T02:01:06.302Z,24.42
2023-04-30T02:02:06.275Z,24.45
2023-04-30T02:03:06.453Z,24.48
2023-04-30T02:04:06.460Z,24.45
2023-04-30T02:05:06.429Z,24.48
2023-04-30T02:06:06.557Z,24.44
2023-04-30T02:07:06.592Z,24.44
2023-04-30T02:08:06.640Z,24.44
2023-04-30T02:09:06.713Z,24.47
2023-04-30T02:10:06.760Z,24.44
2023-04-30T02:11:06.820Z,24.44
2023-04-30T02:12:06.902Z,24.44
2023-04-30T02:13:06.927Z,24.44
2023-04-30T02:14:06.970Z,24.44
2023-04-30T02:15:07.067Z,24.45
2023-04-30T02:16:08.861Z,24.47
2023-04-30T02:17:07.182Z,24.45
2023-04-30T02:18:08.951Z,24.45
2023-04-30T02:19:07.276Z,24.45
2023-04-30T02:20:07.349Z,24.45
2023-04-30T02:21:07.399Z,24.47
2023-04-30T02:22:07.452Z,24.42
2023-04-30T02:23:07.534Z,24.42
2023-04-30T02:24:07.566Z,24.44
2023-04-30T02:25:07.617Z,24.44
2023-04-30T02:26:07.724Z,24.44
2023-04-30T02:27:07.753Z,24.44
2023-04-30T02:28:07.837Z,24.42
2023-04-30T02:29:07.908Z,24.44
2023-04-30T02:30:07.960Z,24.45
2023-04-30T02:31:08.058Z,24.45
2023-04-30T02:32:08.119Z,24.44
2023-04-30T02:33:08.907Z,24.42
2023-04-30T02:34:08.248Z,24.45
2023-04-30T02:35:08.281Z,24.42
2023-04-30T02:36:08.367Z,24.44
2023-04-30T02:37:08.410Z,24.44
2023-04-30T02:38:08.421Z,24.42
2023-04-30T02:39:08.496Z,24.44
2023-04-30T02:40:08.557Z,24.44
2023-04-30T02:41:08.678Z,24.41
2023-04-30T02:42:08.684Z,24.42
2023-04-30T02:43:08.746Z,24.42
2023-04-30T02:44:08.833Z,24.44
2023-04-30T02:45:08.880Z,24.42
2023-04-30T02:46:09.006Z,24.44
2023-04-30T02:47:08.984Z,24.41
2023-04-30T02:48:09.136Z,24.42
2023-04-30T02:49:09.134Z,24.44
2023-04-30T02:50:09.214Z,24.44
2023-04-30T02:51:09.279Z,24.42
2023-04-30T02:52:09.322Z,24.44
2023-04-30T02:53:09.373Z,24.42
2023-04-30T02:54:09.459Z,24.41
2023-04-30T02:55:09.521Z,24.44
2023-04-30T02:56:09.593Z,24.42
2023-04-30T02:57:09.646Z,24.44
2023-04-30T02:58:09.733Z,24.42
2023-04-30T02:59:09.781Z,24.42
2023-04-30T03:00:09.872Z,24.44
2023-04-30T03:01:09.929Z,24.41
2023-04-30T03:02:10.018Z,24.39
2023-04-30T03:03:10.217Z,24.41
2023-04-30T03:04:10.083Z,24.42
2023-04-30T03:05:10.180Z,24.42
2023-04-30T03:06:10.320Z,24.45
2023-04-30T03:07:10.279Z,24.41
2023-04-30T03:08:10.373Z,24.41
2023-04-30T03:09:10.414Z,24.41
2023-04-30T03:10:10.477Z,24.42
2023-04-30T03:11:10.523Z,24.42
2023-04-30T03:12:10.601Z,24.42
2023-04-30T03:13:10.685Z,24.42
2023-04-30T03:14:10.714Z,24.39
2023-04-30T03:15:10.783Z,24.42
2023-04-30T03:16:10.847Z,24.41
2023-04-30T03:17:10.915Z,24.42
2023-04-30T03:18:10.996Z,24.44
2023-04-30T03:19:11.035Z,24.42
2023-04-30T03:20:11.104Z,24.39
2023-04-30T03:21:11.166Z,24.42
2023-04-30T03:22:11.211Z,24.41
2023-04-30T03:23:11.292Z,24.41
2023-04-30T03:24:11.358Z,24.42
2023-04-30T03:25:11.381Z,24.41
2023-04-30T03:26:11.446Z,24.42
2023-04-30T03:27:12.378Z,24.41
2023-04-30T03:28:11.615Z,24.42
2023-04-30T03:29:11.648Z,24.42
2023-04-30T03:30:11.720Z,24.41
2023-04-30T03:31:11.840Z,24.39
2023-04-30T03:32:11.805Z,24.41
2023-04-30T03:33:11.998Z,24.38
2023-04-30T03:34:11.950Z,24.42
2023-04-30T03:35:11.971Z,24.42
2023-04-30T03:36:12.387Z,24.39
2023-04-30T03:37:12.146Z,24.41
2023-04-30T03:38:12.213Z,24.41
2023-04-30T03:39:12.298Z,24.41
2023-04-30T03:40:12.276Z,24.42
2023-04-30T03:41:12.409Z,24.38
2023-04-30T03:42:12.456Z,24.39
2023-04-30T03:43:12.511Z,24.39
2023-04-30T03:44:12.496Z,24.38
2023-04-30T03:45:12.572Z,24.38
2023-04-30T03:46:12.714Z,24.39
2023-04-30T03:47:12.681Z,24.38
2023-04-30T03:48:12.827Z,24.39
2023-04-30T03:49:12.784Z,24.38
2023-04-30T03:50:12.903Z,24.36
2023-04-30T03:51:12.915Z,24.36
2023-04-30T03:52:12.996Z,24.39
2023-04-30T03:53:13.033Z,24.41
2023-04-30T03:54:13.115Z,24.36
2023-04-30T03:55:13.192Z,24.39
2023-04-30T03:56:13.313Z,24.36
2023-04-30T03:57:13.311Z,24.38
2023-04-30T03:58:13.353Z,24.39
2023-04-30T03:59:13.434Z,24.41
2023-04-30T04:00:13.531Z,24.39
2023-04-30T04:01:13.587Z,24.39
2023-04-30T04:02:13.688Z,24.41
2023-04-30T04:03:13.757Z,24.41
2023-04-30T04:04:13.845Z,24.39
2023-04-30T04:05:13.814Z,24.41
2023-04-30T04:06:13.908Z,24.38
2023-04-30T04:07:13.920Z,24.41
2023-04-30T04:08:14.012Z,24.38
2023-04-30T04:09:14.082Z,24.39
2023-04-30T04:10:14.141Z,24.38
2023-04-30T04:11:14.201Z,24.36
2023-04-30T04:12:14.274Z,24.38
2023-04-30T04:13:14.314Z,24.39
2023-04-30T04:14:14.390Z,24.38
2023-04-30T04:15:14.486Z,24.36
2023-04-30T04:16:14.954Z,24.36
2023-04-30T04:17:14.545Z,24.36
2023-04-30T04:18:14.622Z,24.38
2023-04-30T04:19:14.698Z,24.38
2023-04-30T04:20:14.786Z,24.38
2023-04-30T04:21:14.820Z,24.38
2023-04-30T04:22:14.868Z,24.36
2023-04-30T04:23:14.933Z,24.38
2023-04-30T04:24:14.958Z,24.39
2023-04-30T04:25:15.067Z,24.38
2023-04-30T04:26:15.153Z,24.38
2023-04-30T04:27:15.184Z,24.38
2023-04-30T04:28:15.921Z,24.38
2023-04-30T04:29:15.332Z,24.39
2023-04-30T04:30:15.344Z,24.38
2023-04-30T04:31:15.941Z,24.39
2023-04-30T04:32:15.475Z,24.36
2023-04-30T04:33:15.547Z,24.36
2023-04-30T04:34:15.611Z,24.39
2023-04-30T04:35:15.651Z,24.36
2023-04-30T04:36:15.742Z,24.39
2023-04-30T04:37:15.769Z,24.36
2023-04-30T04:38:15.853Z,24.36
2023-04-30T04:39:15.882Z,24.36
2023-04-30T04:40:15.966Z,24.36
2023-04-30T04:41:16.013Z,24.36
2023-04-30T04:42:16.041Z,24.36
2023-04-30T04:43:16.129Z,24.34
2023-04-30T04:44:16.167Z,24.35
2023-04-30T04:45:16.257Z,24.38
2023-04-30T04:46:16.334Z,24.35
2023-04-30T04:47:16.338Z,24.38
2023-04-30T04:48:16.460Z,24.35
2023-04-30T04:49:16.410Z,24.36
2023-04-30T04:50:16.476Z,24.35
2023-04-30T04:51:16.552Z,24.35
2023-04-30T04:52:16.547Z,24.34
2023-04-30T04:53:16.586Z,24.36
2023-04-30T04:54:16.650Z,24.35
2023-04-30T04:55:16.741Z,24.35
2023-04-30T04:56:16.733Z,24.36
2023-04-30T04:57:16.787Z,24.36
2023-04-30T04:58:16.802Z,24.35
2023-04-30T04:59:16.832Z,24.35
2023-04-30T05:00:16.892Z,24.38
2023-04-30T05:01:17.433Z,24.35
2023-04-30T05:02:17.045Z,24.35
2023-04-30T05:03:17.093Z,24.36
2023-04-30T05:04:17.071Z,24.36
2023-04-30T05:05:17.125Z,24.35
2023-04-30T05:06:17.197Z,24.34
2023-04-30T05:07:17.229Z,24.34
2023-04-30T05:08:17.297Z,24.36
2023-04-30T05:09:17.288Z,24.36
2023-04-30T05:10:17.382Z,24.36
2023-04-30T05:11:17.460Z,24.34
2023-04-30T05:12:17.488Z,24.35
2023-04-30T05:13:17.566Z,24.36
2023-04-30T05:14:17.596Z,24.34
2023-04-30T05:15:17.654Z,24.35
2023-04-30T05:16:18.008Z,24.34
2023-04-30T05:17:17.768Z,24.34
2023-04-30T05:18:17.822Z,24.35
2023-04-30T05:19:17.877Z,24.34
2023-04-30T05:20:17.919Z,24.34
2023-04-30T05:21:18.445Z,24.34
2023-04-30T05:22:18.035Z,24.35
2023-04-30T05:23:18.079Z,24.35
2023-04-30T05:24:18.140Z,24.35
2023-04-30T05:25:18.155Z,24.34
2023-04-30T05:26:18.188Z,24.35
2023-04-30T05:27:18.267Z,24.35
2023-04-30T05:28:18.301Z,24.36
2023-04-30T05:29:18.320Z,24.35
2023-04-30T05:30:18.358Z,24.35
2023-04-30T05:31:20.181Z,24.35
2023-04-30T05:32:18.937Z,24.36
2023-04-30T05:33:18.456Z,24.36
2023-04-30T05:34:18.562Z,24.36
2023-04-30T05:35:18.567Z,24.35
2023-04-30T05:36:18.612Z,24.34
2023-04-30T05:37:18.656Z,24.31
2023-04-30T05:38:18.670Z,24.36
2023-04-30T05:39:18.710Z,24.38
2023-04-30T05:40:18.784Z,24.34
2023-04-30T05:41:18.826Z,24.35
2023-04-30T05:42:18.949Z,24.35
2023-04-30T05:43:18.975Z,24.35
2023-04-30T05:44:19.020Z,24.36
2023-04-30T05:45:19.063Z,24.35
2023-04-30T05:46:19.177Z,24.34
2023-04-30T05:47:19.178Z,24.35
2023-04-30T05:48:19.300Z,24.34
2023-04-30T05:49:19.319Z,24.35
2023-04-30T05:50:19.404Z,24.32
2023-04-30T05:51:19.427Z,24.34
2023-04-30T05:52:19.540Z,24.34
2023-04-30T05:53:19.574Z,24.34
2023-04-30T05:54:19.608Z,24.34
2023-04-30T05:55:19.675Z,24.34
2023-04-30T05:56:19.727Z,24.34
2023-04-30T05:57:19.754Z,24.36
2023-04-30T05:58:19.830Z,24.36
2023-04-30T05:59:19.880Z,24.35
2023-04-30T06:00:19.939Z,24.35
2023-04-30T06:01:20.895Z,24.36
2023-04-30T06:02:20.186Z,24.36
2023-04-30T06:03:20.208Z,24.35
2023-04-30T06:04:20.174Z,24.34
2023-04-30T06:05:20.276Z,24.35
2023-04-30T06:06:20.295Z,24.36
2023-04-30T06:07:20.335Z,24.35
2023-04-30T06:08:20.406Z,24.36
2023-04-30T06:09:20.456Z,24.35
2023-04-30T06:10:20.515Z,24.34
2023-04-30T06:11:20.561Z,24.36
2023-04-30T06:12:20.654Z,24.38
2023-04-30T06:13:20.723Z,24.35
2023-04-30T06:14:20.763Z,24.38
2023-04-30T06:15:20.846Z,24.36
2023-04-30T06:16:20.915Z,24.36
2023-04-30T06:17:21.427Z,24.35
2023-04-30T06:18:21.003Z,24.35
2023-04-30T06:19:21.040Z,24.36
2023-04-30T06:20:21.113Z,24.35
2023-04-30T06:21:21.203Z,24.38
2023-04-30T06:22:21.426Z,24.36
2023-04-30T06:23:21.245Z,24.38
2023-04-30T06:24:21.303Z,24.36
2023-04-30T06:25:21.387Z,24.39
2023-04-30T06:26:21.455Z,24.36
2023-04-30T06:27:21.910Z,24.39
2023-04-30T06:28:21.574Z,24.36
2023-04-30T06:29:21.660Z,24.35
2023-04-30T06:30:21.724Z,24.39
2023-04-30T06:31:21.869Z,24.38
2023-04-30T06:32:21.801Z,24.38
2023-04-30T06:33:21.861Z,24.38
2023-04-30T06:34:21.925Z,24.38
2023-04-30T06:35:21.998Z,24.38
2023-04-30T06:36:22.089Z,24.41
2023-04-30T06:37:22.129Z,24.38
2023-04-30T06:38:22.216Z,24.36
2023-04-30T06:39:22.255Z,24.39
2023-04-30T06:40:22.285Z,24.39
2023-04-30T06:41:22.354Z,24.38
2023-04-30T06:42:22.419Z,24.36
2023-04-30T06:43:22.497Z,24.38
2023-04-30T06:44:22.581Z,24.38
2023-04-30T06:45:22.616Z,24.38
2023-04-30T06:46:22.740Z,24.39
2023-04-30T06:47:22.781Z,24.39
2023-04-30T06:48:22.808Z,24.36
2023-04-30T06:49:22.844Z,24.36
2023-04-30T06:50:22.930Z,24.39
2023-04-30T06:51:22.970Z,24.39
2023-04-30T06:52:23.065Z,24.38
2023-04-30T06:53:23.152Z,24.38
2023-04-30T06:54:23.157Z,24.36
2023-04-30T06:55:23.330Z,24.39
2023-04-30T06:56:23.306Z,24.39
2023-04-30T06:57:23.381Z,24.39
2023-04-30T06:58:23.440Z,24.41
2023-04-30T06:59:23.524Z,24.39
2023-04-30T07:00:23.543Z,24.42
2023-04-30T07:01:23.668Z,24.42
2023-04-30T07:02:23.734Z,24.39
2023-04-30T07:03:23.808Z,24.41
2023-04-30T07:04:23.782Z,24.41
2023-04-30T07:05:23.882Z,24.42
2023-04-30T07:06:23.928Z,24.42
2023-04-30T07:07:24.009Z,24.41
2023-04-30T07:08:24.066Z,24.41
2023-04-30T07:09:24.099Z,24.42
2023-04-30T07:10:24.166Z,24.41
2023-04-30T07:11:24.196Z,24.42
2023-04-30T07:12:24.427Z,24.44
2023-04-30T07:13:24.313Z,24.44
2023-04-30T07:14:24.407Z,24.44
2023-04-30T07:15:24.464Z,24.42
2023-04-30T07:16:24.641Z,24.42
2023-04-30T07:17:26.738Z,24.44
2023-04-30T07:18:24.604Z,24.44
2023-04-30T07:19:24.646Z,24.41
2023-04-30T07:20:24.597Z,24.44
2023-04-30T07:21:24.580Z,24.44
2023-04-30T07:22:24.583Z,24.42
2023-04-30T07:23:24.543Z,24.45
2023-04-30T07:24:24.553Z,24.45
2023-04-30T07:25:24.523Z,24.44
2023-04-30T07:26:24.508Z,24.42
2023-04-30T07:27:24.508Z,24.45
2023-04-30T07:28:24.521Z,24.44
2023-04-30T07:29:24.524Z,24.44
2023-04-30T07:30:25.261Z,24.45
2023-04-30T07:31:24.593Z,24.47
2023-04-30T07:32:24.493Z,24.45
2023-04-30T07:33:24.502Z,24.45
2023-04-30T07:34:24.464Z,24.42
2023-04-30T07:35:24.434Z,24.45
2023-04-30T07:36:24.480Z,24.44
2023-04-30T07:37:24.485Z,24.48
2023-04-30T07:38:24.460Z,24.47
2023-04-30T07:39:24.431Z,24.45
2023-04-30T07:40:34.819Z,24.48
2023-04-30T07:41:25.418Z,24.50
2023-04-30T07:42:24.413Z,24.47
2023-04-30T07:43:24.588Z,24.47
2023-04-30T07:44:24.400Z,24.48
2023-04-30T07:45:24.388Z,24.48
2023-04-30T07:46:24.411Z,24.48
2023-04-30T07:47:24.441Z,24.47
2023-04-30T07:48:24.377Z,24.50
2023-04-30T07:49:24.360Z,24.51
2023-04-30T07:50:24.404Z,24.48
2023-04-30T07:51:24.423Z,24.51
2023-04-30T07:52:24.535Z,24.50
2023-04-30T07:53:24.566Z,24.51
2023-04-30T07:54:24.643Z,24.51
2023-04-30T07:55:24.668Z,24.47
2023-04-30T07:56:24.751Z,24.48
2023-04-30T07:57:24.829Z,24.48
2023-04-30T07:58:24.858Z,24.50
2023-04-30T07:59:24.930Z,24.51
2023-04-30T08:00:24.971Z,24.51
2023-04-30T08:01:25.108Z,24.52
2023-04-30T08:02:25.295Z,24.50
2023-04-30T08:03:25.266Z,24.52
2023-04-30T08:04:25.309Z,24.50
2023-04-30T08:05:25.308Z,24.48
2023-04-30T08:06:25.396Z,24.51
2023-04-30T08:07:25.436Z,24.52
2023-04-30T08:08:25.478Z,24.51
2023-04-30T08:09:25.537Z,24.52
2023-04-30T08:10:25.597Z,24.54
2023-04-30T08:11:25.692Z,24.52
2023-04-30T08:12:25.741Z,24.50
2023-04-30T08:13:25.813Z,24.52
2023-04-30T08:14:25.878Z,24.54
2023-04-30T08:15:25.953Z,24.52
2023-04-30T08:16:26.060Z,24.51
2023-04-30T08:17:26.046Z,24.54
2023-04-30T08:18:26.106Z,24.54
2023-04-30T08:19:26.188Z,24.54
2023-04-30T08:20:26.226Z,24.54
2023-04-30T08:21:26.290Z,24.52
2023-04-30T08:22:26.493Z,24.52
2023-04-30T08:23:26.400Z,24.54
2023-04-30T08:24:26.447Z,24.52
2023-04-30T08:25:26.541Z,24.52
2023-04-30T08:26:26.621Z,24.52
2023-04-30T08:27:26.661Z,24.54
2023-04-30T08:28:26.707Z,24.55
2023-04-30T08:29:26.772Z,24.54
2023-04-30T08:30:26.852Z,24.54
2023-04-30T08:31:26.919Z,24.54
2023-04-30T08:32:27.005Z,24.55
2023-04-30T08:33:27.007Z,24.54
2023-04-30T08:34:27.088Z,24.55
2023-04-30T08:35:27.156Z,24.55
2023-04-30T08:36:27.225Z,24.52
2023-04-30T08:37:27.245Z,24.52
2023-04-30T08:38:28.340Z,24.51
2023-04-30T08:39:27.384Z,24.54
2023-04-30T08:40:43.634Z,24.54
2023-04-30T08:41:28.452Z,24.52
2023-04-30T08:42:27.394Z,24.55
2023-04-30T08:43:27.419Z,24.54
2023-04-30T08:44:27.417Z,24.55
2023-04-30T08:45:27.404Z,24.55
2023-04-30T08:46:27.405Z,24.54
2023-04-30T08:47:27.424Z,24.54
2023-04-30T08:48:27.400Z,24.55
2023-04-30T08:49:27.381Z,24.56
2023-04-30T08:50:27.464Z,24.54
2023-04-30T08:51:27.516Z,24.54
2023-04-30T08:52:27.548Z,24.55
2023-04-30T08:53:27.625Z,24.54
2023-04-30T08:54:27.643Z,24.54
2023-04-30T08:55:27.736Z,24.54
2023-04-30T08:56:27.770Z,24.56
2023-04-30T08:57:27.887Z,24.55
2023-04-30T08:58:27.883Z,24.54
2023-04-30T08:59:27.931Z,24.55
2023-04-30T09:00:27.992Z,24.55
2023-04-30T09:01:28.086Z,24.56
2023-04-30T09:02:28.571Z,24.55
2023-04-30T09:03:28.216Z,24.56
2023-04-30T09:04:28.191Z,24.59
2023-04-30T09:05:28.264Z,24.56
2023-04-30T09:06:28.378Z,24.59
2023-04-30T09:07:28.370Z,24.59
2023-04-30T09:08:28.439Z,24.59
2023-04-30T09:09:28.520Z,24.58
2023-04-30T09:10:28.552Z,24.59
2023-04-30T09:11:28.603Z,24.61
2023-04-30T09:12:28.666Z,24.61
2023-04-30T09:13:28.709Z,24.61
2023-04-30T09:14:28.782Z,24.62
2023-04-30T09:15:28.830Z,24.61
2023-04-30T09:16:29.054Z,24.61
2023-04-30T09:17:29.013Z,24.59
2023-04-30T09:18:29.018Z,24.63
2023-04-30T09:19:29.093Z,24.63
2023-04-30T09:20:29.136Z,24.62
2023-04-30T09:21:29.185Z,24.61
2023-04-30T09:22:29.341Z,24.61
2023-04-30T09:23:29.271Z,24.62
2023-04-30T09:24:29.366Z,24.63
2023-04-30T09:25:29.396Z,24.63
2023-04-30T09:26:29.461Z,24.62
2023-04-30T09:27:30.009Z,24.63
2023-04-30T09:28:29.586Z,24.65
2023-04-30T09:29:29.634Z,24.63
2023-04-30T09:30:29.702Z,24.65
2023-04-30T09:31:29.788Z,24.63
2023-04-30T09:32:29.853Z,24.63
2023-04-30T09:33:29.850Z,24.65
2023-04-30T09:34:29.884Z,24.65
2023-04-30T09:35:29.961Z,24.63
2023-04-30T09:36:29.993Z,24.65
2023-04-30T09:37:30.083Z,24.65
2023-04-30T09:38:30.132Z,24.63
2023-04-30T09:39:30.147Z,24.65
2023-04-30T09:40:30.216Z,24.62
2023-04-30T09:41:30.245Z,24.66
2023-04-30T09:42:30.328Z,24.63
2023-04-30T09:43:30.350Z,24.66
2023-04-30T09:44:30.436Z,24.66
2023-04-30T09:45:32.199Z,24.63
2023-04-30T09:46:30.724Z,24.65
2023-04-30T09:47:30.702Z,24.65
2023-04-30T09:48:30.793Z,24.65
2023-04-30T09:49:30.768Z,24.65
2023-04-30T09:50:30.846Z,24.65
2023-04-30T09:51:30.902Z,24.66
2023-04-30T09:52:30.931Z,24.68
2023-04-30T09:53:30.977Z,24.63
2023-04-30T09:54:31.042Z,24.68
2023-04-30T09:55:31.061Z,24.65
2023-04-30T09:56:31.106Z,24.65
2023-04-30T09:57:31.188Z,24.66
2023-04-30T09:58:31.222Z,24.63
2023-04-30T09:59:31.238Z,24.65
2023-04-30T10:00:31.357Z,24.66
2023-04-30T10:01:31.478Z,24.63
2023-04-30T10:02:31.488Z,24.65
2023-04-30T10:03:31.483Z,24.65
2023-04-30T10:04:31.516Z,24.66
2023-04-30T10:05:31.571Z,24.65
2023-04-30T10:06:31.657Z,24.65
2023-04-30T10:07:32.010Z,24.66
2023-04-30T10:08:31.705Z,24.63
2023-04-30T10:09:31.732Z,24.65
2023-04-30T10:10:31.778Z,24.63
2023-04-30T10:11:31.775Z,24.66
2023-04-30T10:12:31.823Z,24.65
2023-04-30T10:13:31.854Z,24.65
2023-04-30T10:14:31.909Z,24.63
2023-04-30T10:15:31.975Z,24.62
2023-04-30T10:16:32.051Z,24.65
2023-04-30T10:17:32.085Z,24.62
2023-04-30T10:18:32.070Z,24.63
2023-04-30T10:19:32.122Z,24.63
2023-04-30T10:20:32.187Z,24.63
2023-04-30T10:21:32.239Z,24.62
2023-04-30T10:22:32.230Z,24.63
2023-04-30T10:23:32.515Z,24.63
2023-04-30T10:24:32.338Z,24.63
2023-04-30T10:25:32.387Z,24.62
2023-04-30T10:26:32.448Z,24.62
2023-04-30T10:27:32.492Z,24.63
2023-04-30T10:28:33.041Z,24.63
2023-04-30T10:29:32.586Z,24.62
2023-04-30T10:30:32.608Z,24.65
2023-04-30T10:31:32.733Z,24.62
2023-04-30T10:32:32.832Z,24.66
2023-04-30T10:33:32.761Z,24.65
2023-04-30T10:34:32.813Z,24.63
2023-04-30T10:35:32.865Z,24.63
2023-04-30T10:36:32.888Z,24.63
2023-04-30T10:37:32.956Z,24.63
2023-04-30T10:38:32.998Z,24.63
2023-04-30T10:39:33.042Z,24.63
2023-04-30T10:40:33.082Z,24.63
2023-04-30T10:41:33.111Z,24.62
2023-04-30T10:42:33.204Z,24.65
2023-04-30T10:43:33.293Z,24.65
2023-04-30T10:44:33.292Z,24.66
2023-04-30T10:45:33.324Z,24.65
2023-04-30T10:46:33.504Z,24.63
2023-04-30T10:47:33.452Z,24.66
2023-04-30T10:48:33.535Z,24.65
2023-04-30T10:49:33.482Z,24.65
2023-04-30T10:50:33.571Z,24.63
2023-04-30T10:51:33.594Z,24.63
2023-04-30T10:52:33.649Z,24.66
2023-04-30T10:53:34.008Z,24.65
2023-04-30T10:54:33.742Z,24.68
2023-04-30T10:55:33.764Z,24.65
2023-04-30T10:56:33.831Z,24.66
2023-04-30T10:57:33.901Z,24.66
2023-04-30T10:58:34.048Z,24.68
2023-04-30T10:59:33.975Z,24.63
2023-04-30T11:00:34.025Z,24.68
2023-04-30T11:01:34.107Z,24.68
2023-04-30T11:02:34.111Z,24.66
2023-04-30T11:03:34.150Z,24.68
2023-04-30T11:04:34.227Z,24.65
2023-04-30T11:05:34.246Z,24.66
2023-04-30T11:06:34.298Z,24.66
2023-04-30T11:07:34.333Z,24.66
2023-04-30T11:08:34.399Z,24.68
2023-04-30T11:09:34.419Z,24.68
2023-04-30T11:10:34.449Z,24.69
2023-04-30T11:11:34.537Z,24.65
2023-04-30T11:12:34.613Z,24.65
2023-04-30T11:13:34.624Z,24.65
2023-04-30T11:14:34.673Z,24.66
2023-04-30T11:15:34.776Z,24.66
2023-04-30T11:16:35.115Z,24.66
2023-04-30T11:17:34.874Z,24.68
2023-04-30T11:18:34.866Z,24.66
2023-04-30T11:19:34.891Z,24.68
2023-04-30T11:20:34.973Z,24.66
2023-04-30T11:21:35.021Z,24.68
2023-04-30T11:22:35.065Z,24.68
2023-04-30T11:23:40.436Z,24.66
2023-04-30T11:24:36.089Z,24.66
2023-04-30T11:25:35.107Z,24.66
2023-04-30T11:26:35.070Z,24.68
2023-04-30T11:27:35.121Z,24.69
2023-04-30T11:28:35.548Z,24.66
2023-04-30T11:29:35.082Z,24.66
2023-04-30T11:30:35.033Z,24.68
2023-04-30T11:31:35.172Z,24.68
2023-04-30T11:32:35.090Z,24.66
2023-04-30T11:33:35.033Z,24.66
2023-04-30T11:34:35.076Z,24.66
2023-04-30T11:35:35.118Z,24.66
2023-04-30T11:36:35.155Z,24.66
2023-04-30T11:37:35.189Z,24.65
2023-04-30T11:38:35.234Z,24.66
2023-04-30T11:39:35.287Z,24.65
2023-04-30T11:40:35.330Z,24.66
2023-04-30T11:41:35.361Z,24.65
2023-04-30T11:42:35.433Z,24.63
2023-04-30T11:43:35.466Z,24.65
2023-04-30T11:44:35.524Z,24.66
2023-04-30T11:45:35.577Z,24.68
2023-04-30T11:46:35.658Z,24.66
2023-04-30T11:47:35.662Z,24.65
2023-04-30T11:48:36.030Z,24.66
2023-04-30T11:49:35.750Z,24.68
2023-04-30T11:50:35.791Z,24.68
2023-04-30T11:51:35.827Z,24.66
2023-04-30T11:52:35.881Z,24.66
2023-04-30T11:53:35.909Z,24.66
2023-04-30T11:54:35.980Z,24.66
2023-04-30T11:55:36.018Z,24.65
2023-04-30T11:56:36.093Z,24.69
2023-04-30T11:57:36.109Z,24.66
2023-04-30T11:58:36.136Z,24.66
2023-04-30T11:59:36.190Z,24.65
2023-04-30T12:00:36.253Z,24.69
2023-04-30T12:01:36.348Z,24.68
2023-04-30T12:02:36.438Z,24.69
2023-04-30T12:03:36.462Z,24.68
2023-04-30T12:04:36.537Z,24.68
2023-04-30T12:05:36.475Z,24.66
2023-04-30T12:06:36.567Z,24.69
2023-04-30T12:07:36.567Z,24.70
2023-04-30T12:08:36.624Z,24.70
2023-04-30T12:09:36.662Z,24.72
2023-04-30T12:10:36.759Z,24.70
2023-04-30T12:11:36.745Z,24.72
2023-04-30T12:12:36.793Z,24.72
2023-04-30T12:13:37.063Z,24.70
2023-04-30T12:14:36.873Z,24.72
2023-04-30T12:15:36.938Z,24.72
2023-04-30T12:16:36.983Z,24.73
2023-04-30T12:17:37.045Z,24.73
2023-04-30T12:18:37.094Z,24.76
2023-04-30T12:19:37.141Z,24.73
2023-04-30T12:20:37.131Z,24.75
2023-04-30T12:21:37.176Z,24.73
2023-04-30T12:22:37.190Z,24.78
2023-04-30T12:23:37.260Z,24.76
2023-04-30T12:24:37.297Z,24.80
2023-04-30T12:25:37.348Z,24.78
2023-04-30T12:26:37.393Z,24.80
2023-04-30T12:27:37.396Z,24.79
2023-04-30T12:28:37.458Z,24.79
2023-04-30T12:29:37.472Z,24.82
2023-04-30T12:30:37.507Z,24.82
2023-04-30T12:31:37.587Z,24.83
2023-04-30T12:32:37.726Z,24.80
2023-04-30T12:33:37.631Z,24.83
2023-04-30T12:34:37.653Z,24.85
2023-04-30T12:35:37.671Z,24.87
2023-04-30T12:36:37.741Z,24.87
2023-04-30T12:37:37.765Z,24.85
2023-04-30T12:38:37.794Z,24.87
2023-04-30T12:39:37.829Z,24.89
2023-04-30T12:40:37.908Z,24.86
2023-04-30T12:41:37.909Z,24.89
2023-04-30T12:42:37.915Z,24.87
2023-04-30T12:43:37.959Z,24.90
2023-04-30T12:44:37.998Z,24.89
2023-04-30T12:45:38.023Z,24.90
2023-04-30T12:46:38.140Z,24.90
2023-04-30T12:47:38.459Z,24.93
2023-04-30T12:48:38.154Z,24.91
2023-04-30T12:49:38.169Z,24.90
2023-04-30T12:50:38.201Z,24.94
2023-04-30T12:51:38.291Z,24.96
2023-04-30T12:52:38.266Z,24.94
2023-04-30T12:53:38.295Z,24.96